Time;durP1;ratioP1;P1;durP2;ratioP2;P2;SDS_P1;SDS_P2;PMS_P1;PMS_P2;Temp;Humidity;BMP_temperature;BMP_pressure;BME280_temperature;BME280_humidity;BME280_pressure;Samples;Min_cycle;Max_cycle;Signal;HPM_P1;HPM_P2
2022/01/07 00:02:22;;;;;;;62.42;36.80;;;;;;;3.07;77.07;100019.13;5067935;28;20377;-22
2022/01/07 00:04:48;;;;;;;62.10;34.63;;;;;;;3.51;75.97;100042.31;5050116;28;20090;-22
2022/01/07 00:07:13;;;;;;;60.63;36.22;;;;;;;3.50;75.99;100055.69;5067986;28;20036;-23
2022/01/07 00:09:39;;;;;;;68.65;39.08;;;;;;;3.62;75.40;100060.38;5067996;28;20035;-22
2022/01/07 00:12:05;;;;;;;60.45;35.50;;;;;;;3.35;76.67;100053.78;5068115;28;20408;-22
2022/01/07 00:14:30;;;;;;;56.88;33.42;;;;;;;3.65;75.24;100047.84;5049743;28;20029;-22
2022/01/07 00:16:56;;;;;;;62.00;35.58;;;;;;;3.74;74.74;100052.06;5049841;28;20035;-23
2022/01/07 00:19:21;;;;;;;58.97;34.60;;;;;;;3.66;74.50;100039.75;5049650;28;20053;-22
2022/01/07 00:21:47;;;;;;;55.50;33.17;;;;;;;3.52;75.35;100061.59;5067728;28;20450;-22
2022/01/07 00:24:12;;;;;;;56.38;33.25;;;;;;;3.40;76.53;100072.53;5068149;28;20036;-23
2022/01/07 00:26:37;;;;;;;54.05;32.50;;;;;;;3.65;76.21;100071.56;5068059;28;20031;-21
2022/01/07 00:29:03;;;;;;;61.35;35.03;;;;;;;3.66;76.79;100078.47;5067697;28;20045;-22
2022/01/07 00:31:28;;;;;;;64.32;36.30;;;;;;;3.70;77.49;100071.88;5049832;28;20032;-22
2022/01/07 00:33:54;;;;;;;51.53;32.65;;;;;;;3.82;77.67;100075.75;5067809;28;20075;-22
2022/01/07 00:36:19;;;;;;;55.42;33.63;;;;;;;3.80;76.22;100069.81;5068318;28;20040;-22
2022/01/07 00:38:45;;;;;;;52.72;33.33;;;;;;;3.50;77.83;100068.88;5068081;28;20028;-22
2022/01/07 00:41:10;;;;;;;60.03;36.55;;;;;;;3.65;76.94;100064.47;5067923;28;20024;-22
2022/01/07 00:43:36;;;;;;;55.92;36.03;;;;;;;3.33;79.11;100086.53;5067010;28;20044;-21
2022/01/07 00:46:01;;;;;;;55.10;33.60;;;;;;;3.11;78.84;100074.97;5067786;28;20042;-22
2022/01/07 00:48:27;;;;;;;60.88;35.80;;;;;;;3.29;79.11;100078.19;5049845;28;20400;-22
2022/01/07 00:50:52;;;;;;;56.70;35.13;;;;;;;3.66;77.90;100081.13;5049543;28;20028;-22
2022/01/07 00:53:18;;;;;;;55.65;34.33;;;;;;;3.43;76.63;100081.88;5033032;28;20408;-22
2022/01/07 00:55:43;;;;;;;51.47;32.88;;;;;;;3.73;76.85;100087.34;5067659;28;20029;-22
2022/01/07 00:58:09;;;;;;;58.58;36.33;;;;;;;3.37;76.85;100072.88;5067812;28;20029;-22
2022/01/07 01:00:34;;;;;;;57.55;35.28;;;;;;;3.76;75.66;100087.84;5067611;28;20029;-23
2022/01/07 01:03:00;;;;;;;54.03;33.88;;;;;;;3.54;75.79;100068.34;5067401;28;20483;-22
2022/01/07 01:05:25;;;;;;;57.33;34.60;;;;;;;3.77;76.11;100099.19;5067703;28;20083;-22
2022/01/07 01:07:51;;;;;;;56.80;34.50;;;;;;;3.17;77.02;100082.19;5067452;28;20054;-22
2022/01/07 01:10:18;;;;;;;54.72;34.83;;;;;;;2.63;79.15;100085.41;5067810;28;20021;-22
2022/01/07 01:12:44;;;;;;;56.92;37.10;;;;;;;2.87;79.16;100107.44;5067543;28;20235;-22
2022/01/07 01:15:11;;;;;;;56.35;34.92;;;;;;;2.89;77.96;100077.31;5049575;28;20080;-22
2022/01/07 01:17:36;;;;;;;60.28;36.58;;;;;;;3.48;76.09;100095.41;5067182;28;20064;-22
2022/01/07 01:20:06;;;;;;;53.45;35.42;;;;;;;3.61;77.59;100111.47;5067436;28;20036;-22
2022/01/07 01:22:31;;;;;;;60.67;36.33;;;;;;;3.46;77.28;100102.66;5067421;28;20021;-22
2022/01/07 01:24:57;;;;;;;61.42;35.65;;;;;;;3.32;78.38;100082.28;5067238;28;20108;-22
2022/01/07 01:27:22;;;;;;;60.28;38.83;;;;;;;3.28;78.37;100109.97;5067452;28;20033;-22
2022/01/07 01:29:48;;;;;;;60.35;37.38;;;;;;;3.39;78.76;100101.69;5049567;28;20415;-22
2022/01/07 01:32:16;;;;;;;61.88;39.63;;;;;;;3.31;78.88;100122.78;5067369;28;20032;-22
2022/01/07 01:34:41;;;;;;;64.10;38.50;;;;;;;3.23;78.43;100113.13;5067409;28;20016;-22
2022/01/07 01:37:07;;;;;;;59.70;37.15;;;;;;;3.26;78.95;100122.50;5048947;28;20074;-22
2022/01/07 01:39:32;;;;;;;60.38;37.78;;;;;;;3.25;78.73;100099.75;5049206;28;20029;-22
2022/01/07 01:41:58;;;;;;;56.72;35.78;;;;;;;3.18;79.01;100113.63;5049393;28;20032;-22
2022/01/07 01:44:23;;;;;;;54.47;35.97;;;;;;;3.47;78.24;100112.19;5067145;28;20050;-22
2022/01/07 01:46:49;;;;;;;61.47;35.78;;;;;;;3.27;78.45;100113.59;5067355;28;20029;-23
2022/01/07 01:49:14;;;;;;;56.50;33.70;;;;;;;3.35;78.06;100113.56;5049200;28;20032;-22
2022/01/07 01:51:40;;;;;;;55.42;33.80;;;;;;;3.22;78.11;100114.91;5067234;28;20578;-22
2022/01/07 01:54:05;;;;;;;59.72;36.05;;;;;;;3.06;79.13;100117.59;5067421;28;20036;-22
2022/01/07 01:56:32;;;;;;;56.15;35.00;;;;;;;3.29;78.22;100106.34;5070084;28;20037;-22
2022/01/07 01:58:57;;;;;;;55.28;33.42;;;;;;;2.99;78.41;100098.19;5070241;28;20400;-22
2022/01/07 02:01:23;;;;;;;56.13;34.33;;;;;;;3.71;76.23;100113.09;5070596;28;20031;-22
2022/01/07 02:03:48;;;;;;;56.13;34.25;;;;;;;3.49;76.83;100123.38;5052777;28;20035;-22
2022/01/07 02:06:14;;;;;;;52.85;34.33;;;;;;;3.66;76.15;100096.94;5052682;28;20037;-21
2022/01/07 02:08:40;;;;;;;59.80;37.67;;;;;;;3.08;78.38;100136.69;5070577;28;20039;-22
2022/01/07 02:11:06;;;;;;;52.28;32.40;;;;;;;2.73;78.53;100122.94;5052242;28;20029;-22
2022/01/07 02:13:31;;;;;;;53.92;31.27;;;;;;;2.17;79.64;100128.03;5070388;28;20044;-23
2022/01/07 02:15:56;;;;;;;51.22;28.63;;;;;;;1.62;80.31;100152.22;5052928;28;20036;-22
2022/01/07 02:18:22;;;;;;;60.33;31.75;;;;;;;1.68;81.40;100137.63;5051966;28;20048;-22
2022/01/07 02:20:48;;;;;;;65.78;34.40;;;;;;;1.81;81.79;100145.88;5052194;28;20039;-22
2022/01/07 02:23:15;;;;;;;66.68;34.42;;;;;;;2.04;82.07;100140.00;5070015;28;20044;-22
2022/01/07 02:25:41;;;;;;;69.15;35.80;;;;;;;2.35;81.10;100156.84;5036057;28;20032;-22
2022/01/07 02:28:06;;;;;;;61.35;34.90;;;;;;;2.59;80.90;100158.63;5052464;28;20127;-23
2022/01/07 02:30:32;;;;;;;63.63;36.33;;;;;;;2.88;79.66;100151.22;5052177;28;20029;-22
2022/01/07 02:32:57;;;;;;;60.72;38.30;;;;;;;2.68;80.99;100156.03;5051678;28;20067;-22
2022/01/07 02:35:29;;;;;;;57.08;33.70;;;;;;;2.44;82.28;100162.94;5069792;28;20025;-22
2022/01/07 02:37:54;;;;;;;83.85;47.55;;;;;;;3.01;80.98;100172.63;5069930;28;20059;-21
2022/01/07 02:40:20;;;;;;;163.02;77.68;;;;;;;3.29;79.02;100159.03;5069681;28;20827;-19
2022/01/07 02:42:45;;;;;;;72.63;43.80;;;;;;;3.77;77.36;100157.22;5069677;28;20032;-20
2022/01/07 02:45:11;;;;;;;73.68;42.22;;;;;;;3.86;76.55;100160.66;5069640;28;20934;-19
2022/01/07 02:47:49;;;;;;;90.88;59.63;;;;;;;3.90;77.12;100165.41;5069685;28;20492;-21
2022/01/07 02:50:16;;;;;;;84.88;51.30;;;;;;;3.69;78.69;100154.63;5069716;28;20514;-19
2022/01/07 02:52:42;;;;;;;65.38;40.08;;;;;;;3.25;79.84;100153.31;5051807;28;20151;-19
2022/01/07 02:55:07;;;;;;;68.15;40.78;;;;;;;3.06;80.80;100167.66;5051448;28;20407;-20
2022/01/07 02:57:33;;;;;;;67.10;39.88;;;;;;;2.94;81.40;100146.13;5069597;28;20024;-20
2022/01/07 02:59:58;;;;;;;70.07;43.78;;;;;;;3.14;81.16;100166.84;5051237;28;20511;-21
2022/01/07 03:02:24;;;;;;;70.35;40.75;;;;;;;2.84;82.15;100176.25;5069885;28;20040;-19
2022/01/07 03:04:49;;;;;;;74.57;42.03;;;;;;;2.80;82.24;100170.50;5069325;28;20039;-19
2022/01/07 03:07:14;;;;;;;66.20;40.33;;;;;;;2.98;81.20;100159.78;5068630;28;20393;-20
2022/01/07 03:09:40;;;;;;;91.43;48.88;;;;;;;3.04;81.42;100184.63;5069491;28;20044;-20
2022/01/07 03:12:06;;;;;;;71.70;41.33;;;;;;;3.07;82.24;100187.78;5069317;28;20033;-19
2022/01/07 03:14:31;;;;;;;77.72;42.58;;;;;;;3.62;80.10;100194.06;5051223;28;20025;-19
2022/01/07 03:16:57;;;;;;;76.43;43.55;;;;;;;3.77;78.98;100183.63;5069034;28;20044;-19
2022/01/07 03:19:22;;;;;;;72.30;43.00;;;;;;;3.56;80.37;100187.66;5068739;28;20064;-20
2022/01/07 03:21:48;;;;;;;76.40;43.80;;;;;;;3.63;80.55;100200.97;5069208;28;20404;-19
2022/01/07 03:24:13;;;;;;;68.55;40.95;;;;;;;3.76;79.69;100174.03;5068828;28;20040;-20
2022/01/07 03:26:39;;;;;;;73.38;43.75;;;;;;;3.90;79.72;100206.78;5068983;28;20427;-19
2022/01/07 03:29:04;;;;;;;70.88;42.05;;;;;;;4.10;78.78;100188.72;5050572;28;20040;-20
2022/01/07 03:31:30;;;;;;;69.57;43.25;;;;;;;4.34;77.36;100206.25;5068933;28;20033;-19
2022/01/07 03:33:55;;;;;;;65.55;38.88;;;;;;;3.95;79.29;100222.94;5068835;28;20119;-20
2022/01/07 03:36:21;;;;;;;67.07;40.28;;;;;;;4.00;79.75;100225.88;5069051;28;20036;-20
2022/01/07 03:38:46;;;;;;;63.63;40.20;;;;;;;3.86;80.13;100222.13;5068682;28;20037;-19
2022/01/07 03:41:11;;;;;;;71.43;40.78;;;;;;;4.29;79.42;100225.25;5050397;28;20036;-19
2022/01/07 03:43:37;;;;;;;69.97;39.83;;;;;;;4.33;78.71;100218.63;5068468;28;20488;-19
2022/01/07 03:46:02;;;;;;;74.88;45.38;;;;;;;4.50;77.38;100208.78;5068375;28;20491;-20
2022/01/07 03:48:28;;;;;;;85.03;44.72;;;;;;;4.33;78.99;100228.34;5068694;28;20040;-19
2022/01/07 03:50:53;;;;;;;93.18;53.88;;;;;;;4.12;79.89;100234.25;5068265;28;20025;-20
2022/01/07 03:53:19;;;;;;;135.45;69.80;;;;;;;4.09;80.66;100235.41;5068080;28;20070;-20
2022/01/07 03:55:44;;;;;;;123.90;63.88;;;;;;;4.08;81.09;100233.75;5068122;28;20033;-19
2022/01/07 03:58:10;;;;;;;91.05;51.53;;;;;;;3.69;82.65;100234.56;5068480;28;20119;-20
2022/01/07 04:00:38;;;;;;;71.65;42.75;;;;;;;4.10;81.39;100246.78;5068098;28;20114;-19
2022/01/07 04:03:05;;;;;;;69.70;40.45;;;;;;;4.45;79.38;100249.91;5050505;28;20466;-20
2022/01/07 04:05:30;;;;;;;126.40;70.65;;;;;;;4.22;81.00;100261.25;5050372;28;20052;-19
2022/01/07 04:07:56;;;;;;;95.45;56.88;;;;;;;4.16;82.20;100269.84;5050141;28;20111;-19
2022/01/07 04:10:21;;;;;;;71.88;42.45;;;;;;;4.49;80.61;100269.69;5067920;28;20492;-20
2022/01/07 04:12:47;;;;;;;65.55;40.40;;;;;;;4.70;79.09;100255.84;5050237;28;20404;-19
2022/01/07 04:15:12;;;;;;;67.22;42.72;;;;;;;5.09;77.67;100268.94;5050152;28;20400;-20
2022/01/07 04:17:39;;;;;;;71.50;41.25;;;;;;;4.83;79.15;100274.59;5067125;28;20053;-19
2022/01/07 04:20:06;;;;;;;71.95;39.67;;;;;;;5.11;77.97;100284.59;5067708;28;20037;-20
2022/01/07 04:22:33;;;;;;;55.92;34.38;;;;;;;5.17;76.80;100282.09;5049861;28;20028;-19
2022/01/07 04:24:59;;;;;;;47.30;27.88;;;;;;;5.19;77.41;100264.22;5049719;28;20032;-19
2022/01/07 04:27:25;;;;;;;38.78;23.85;;;;;;;5.10;78.25;100260.00;5066871;28;20040;-20
2022/01/07 04:29:51;;;;;;;33.78;21.33;;;;;;;5.26;77.61;100260.88;5065990;28;20029;-20
2022/01/07 04:32:16;;;;;;;80.82;54.33;;;;;;;5.37;77.21;100292.16;5066810;28;20029;-20
2022/01/07 04:34:41;;;;;;;91.15;59.38;;;;;;;5.43;77.52;100292.28;5067655;28;20024;-19
2022/01/07 04:37:07;;;;;;;34.88;20.13;;;;;;;5.44;76.21;100278.03;5067087;28;20032;-19
2022/01/07 04:39:32;;;;;;;52.40;32.95;;;;;;;5.66;75.76;100285.28;5066893;28;20033;-20
2022/01/07 04:41:59;;;;;;;49.22;32.10;;;;;;;5.62;76.38;100293.59;5067880;28;20074;-19
2022/01/07 04:44:25;;;;;;;89.15;55.22;;;;;;;5.57;76.66;100288.00;5067858;28;20407;-20
2022/01/07 04:46:50;;;;;;;230.20;126.80;;;;;;;5.76;75.46;100307.00;5068147;28;20025;-20
2022/01/07 04:49:16;;;;;;;110.10;60.40;;;;;;;5.77;74.74;100298.06;5067502;28;20078;-19
2022/01/07 04:51:41;;;;;;;61.67;37.40;;;;;;;5.58;75.03;100288.84;5067671;28;20039;-19
2022/01/07 04:54:07;;;;;;;33.97;20.05;;;;;;;5.75;75.06;100310.66;5067716;28;20028;-19
2022/01/07 04:56:32;;;;;;;21.52;12.75;;;;;;;5.86;73.67;100312.03;5067623;28;20036;-19
2022/01/07 04:58:57;;;;;;;20.98;10.82;;;;;;;5.78;74.69;100311.13;5067286;28;20039;-20
2022/01/07 05:01:23;;;;;;;16.60;10.50;;;;;;;5.96;73.53;100313.41;5068451;28;20782;-19
2022/01/07 05:03:48;;;;;;;16.83;9.48;;;;;;;6.10;73.42;100316.25;5067628;28;20446;-20
2022/01/07 05:08:45;;;;;;;17.92;11.05;;;;;;;5.92;74.49;100320.06;5067596;28;20055;-20
2022/01/07 05:11:11;;;;;;;23.98;14.65;;;;;;;6.10;73.99;100329.50;5067532;28;20801;-20
2022/01/07 05:13:36;;;;;;;38.90;21.08;;;;;;;6.11;74.20;100325.84;5067571;28;20400;-20
2022/01/07 05:16:02;;;;;;;15.45;9.88;;;;;;;5.81;74.38;100309.94;5067755;28;20052;-19
2022/01/07 05:18:27;;;;;;;23.65;13.63;;;;;;;5.90;74.39;100334.47;5066675;28;20110;-20
2022/01/07 05:20:52;;;;;;;18.67;11.23;;;;;;;6.00;73.93;100335.88;5067427;28;20028;-20
2022/01/07 05:23:19;;;;;;;20.05;11.95;;;;;;;5.96;74.69;100339.91;5067088;28;20033;-19
2022/01/07 05:25:45;;;;;;;20.48;13.20;;;;;;;6.03;74.16;100348.78;5067469;28;20462;-19
2022/01/07 05:28:11;;;;;;;18.92;11.50;;;;;;;6.03;74.18;100350.59;5067615;28;20483;-20
2022/01/07 05:30:36;;;;;;;21.95;11.93;;;;;;;6.04;73.96;100353.03;5070597;28;20399;-20
2022/01/07 05:33:02;;;;;;;84.75;32.03;;;;;;;6.03;75.13;100359.34;5070792;28;20033;-19
2022/01/07 05:35:29;;;;;;;88.78;48.78;;;;;;;6.07;73.82;100362.47;5071045;28;20058;-20
2022/01/07 05:37:54;;;;;;;182.32;112.15;;;;;;;5.91;74.99;100366.06;5071099;28;20066;-19
2022/01/07 05:40:20;;;;;;;27.38;17.85;;;;;;;6.28;73.21;100367.03;5070761;28;20048;-19
2022/01/07 05:42:45;;;;;;;19.88;10.70;;;;;;;6.47;72.40;100372.78;5070992;28;20084;-19
2022/01/07 05:45:11;;;;;;;21.08;13.40;;;;;;;6.49;71.31;100371.56;5070778;28;20047;-20
2022/01/07 05:47:36;;;;;;;29.45;19.73;;;;;;;5.89;73.41;100354.84;5070995;28;20039;-21
2022/01/07 05:50:02;;;;;;;20.48;12.27;;;;;;;5.91;73.80;100339.59;5071139;28;20783;-20
2022/01/07 05:52:27;;;;;;;28.30;16.70;;;;;;;5.85;73.84;100329.75;5070903;28;20095;-20
2022/01/07 05:54:53;;;;;;;21.77;11.43;;;;;;;6.02;73.33;100360.34;5071182;28;20039;-20
2022/01/07 05:57:18;;;;;;;17.85;9.85;;;;;;;5.93;73.92;100353.47;5070376;28;20028;-19
2022/01/07 05:59:44;;;;;;;16.52;9.18;;;;;;;5.93;74.36;100348.19;5070680;28;20515;-19
2022/01/07 06:02:09;;;;;;;22.30;15.48;;;;;;;6.04;73.61;100368.94;5070517;28;20035;-19
2022/01/07 06:04:35;;;;;;;18.35;11.77;;;;;;;5.86;74.65;100363.13;5070536;28;20059;-19
2022/01/07 06:07:01;;;;;;;35.75;24.35;;;;;;;5.85;74.32;100380.03;5070220;28;20419;-19
2022/01/07 06:09:26;;;;;;;46.80;26.08;;;;;;;6.01;73.54;100371.13;5070253;28;20024;-20
2022/01/07 06:11:52;;;;;;;35.97;20.45;;;;;;;5.92;73.21;100385.41;5070586;28;20774;-19
2022/01/07 06:14:17;;;;;;;40.85;25.08;;;;;;;5.97;72.90;100365.38;5070426;28;20102;-19
2022/01/07 06:16:43;;;;;;;30.00;18.13;;;;;;;6.25;72.07;100375.31;5070747;28;20039;-19
2022/01/07 06:19:08;;;;;;;75.70;37.67;;;;;;;6.25;72.26;100383.28;5069696;28;20064;-19
2022/01/07 06:21:34;;;;;;;32.45;17.02;;;;;;;6.48;71.08;100385.00;5070669;28;20025;-21
2022/01/07 06:23:59;;;;;;;20.42;10.73;;;;;;;6.22;72.07;100370.41;5070377;28;20036;-20
2022/01/07 06:26:25;;;;;;;16.45;10.20;;;;;;;6.55;70.65;100392.03;5070162;28;20470;-19
2022/01/07 06:28:51;;;;;;;20.50;12.02;;;;;;;6.34;71.06;100374.25;5070363;28;20488;-19
2022/01/07 06:31:16;;;;;;;22.70;12.57;;;;;;;6.18;71.54;100379.72;5069524;28;20037;-19
2022/01/07 06:33:42;;;;;;;44.35;28.98;;;;;;;6.02;71.94;100386.81;5069954;28;20037;-19
2022/01/07 06:36:07;;;;;;;56.25;39.42;;;;;;;6.18;71.65;100395.63;5070051;28;20510;-20
2022/01/07 06:38:33;;;;;;;35.55;24.88;;;;;;;6.16;72.25;100398.44;5069852;28;20512;-20
2022/01/07 06:40:59;;;;;;;29.83;17.80;;;;;;;6.49;71.44;100402.56;5068699;28;20024;-20
2022/01/07 06:43:24;;;;;;;26.50;18.15;;;;;;;6.35;71.87;100410.31;5070265;28;20044;-19
2022/01/07 06:45:50;;;;;;;22.23;13.85;;;;;;;6.24;71.22;100395.69;5070038;28;20474;-19
2022/01/07 06:48:15;;;;;;;23.98;15.50;;;;;;;6.22;72.04;100408.31;5069580;28;20025;-19
2022/01/07 06:50:41;;;;;;;25.02;17.15;;;;;;;6.26;71.92;100414.06;5069769;28;20052;-19
2022/01/07 06:53:07;;;;;;;40.53;28.27;;;;;;;6.55;70.64;100413.22;5069395;28;20032;-20
2022/01/07 06:55:32;;;;;;;30.77;21.15;;;;;;;6.48;70.70;100416.78;5051590;28;20039;-20
2022/01/07 06:57:58;;;;;;;29.73;21.13;;;;;;;6.61;69.95;100414.31;5069366;28;20032;-20
2022/01/07 07:00:24;;;;;;;21.38;13.10;;;;;;;6.69;70.05;100419.53;5069605;28;20033;-19
2022/01/07 07:02:50;;;;;;;15.05;9.52;;;;;;;6.86;68.37;100422.78;5069661;28;20054;-20
2022/01/07 07:05:15;;;;;;;15.68;9.15;;;;;;;6.95;69.54;100428.81;5069278;28;20040;-19
2022/01/07 07:07:40;;;;;;;17.15;8.95;;;;;;;6.98;70.25;100417.84;5069231;28;20028;-19
2022/01/07 07:10:06;;;;;;;16.15;8.48;;;;;;;6.93;69.57;100414.94;5069278;28;20032;-19
2022/01/07 07:12:32;;;;;;;14.40;9.10;;;;;;;6.75;70.82;100418.78;5069151;28;20029;-19
2022/01/07 07:14:57;;;;;;;16.23;9.20;;;;;;;6.61;71.42;100411.69;5068903;28;20861;-20
2022/01/07 07:17:24;;;;;;;17.45;9.63;;;;;;;6.81;71.32;100412.75;5068729;28;20064;-19
2022/01/07 07:19:50;;;;;;;16.42;9.73;;;;;;;6.58;71.96;100412.06;5069037;28;20109;-20
2022/01/07 07:22:15;;;;;;;14.77;9.27;;;;;;;6.51;72.00;100419.09;5069125;28;20024;-20
2022/01/07 07:24:41;;;;;;;16.55;9.38;;;;;;;6.74;71.19;100419.81;5068806;28;20028;-19
2022/01/07 07:27:06;;;;;;;21.40;8.65;;;;;;;6.83;70.85;100410.72;5068748;28;20037;-19
2022/01/07 07:29:32;;;;;;;16.25;9.27;;;;;;;6.83;69.79;100431.94;5069035;28;20052;-19
2022/01/07 07:31:59;;;;;;;17.10;9.30;;;;;;;6.76;69.04;100409.84;5068656;28;20054;-19
2022/01/07 07:37:05;;;;;;;16.38;9.60;;;;;;;6.90;70.21;100404.69;5068421;28;20452;-20
2022/01/07 07:39:31;;;;;;;18.27;9.75;;;;;;;7.19;68.64;100427.66;5068604;28;20043;-19
2022/01/07 07:41:56;;;;;;;27.92;10.73;;;;;;;7.24;68.27;100434.03;5068628;28;20032;-19
2022/01/07 07:44:22;;;;;;;18.67;9.75;;;;;;;7.28;68.46;100434.50;5068454;28;20036;-19
2022/01/07 07:46:47;;;;;;;17.75;9.25;;;;;;;7.09;66.30;100424.47;5068776;28;20484;-20
2022/01/07 07:49:14;;;;;;;17.15;9.25;;;;;;;7.34;67.68;100438.22;5067326;28;20036;-19
2022/01/07 07:51:39;;;;;;;20.73;18.08;;;;;;;7.19;67.16;100436.44;5068579;28;20029;-20
2022/01/07 07:54:05;;;;;;;15.75;9.65;;;;;;;7.41;66.88;100431.97;5068556;28;20063;-19
2022/01/07 07:56:30;;;;;;;16.00;9.98;;;;;;;7.39;67.41;100436.63;5068528;28;20175;-20
2022/01/07 07:58:58;;;;;;;16.02;9.68;;;;;;;7.61;66.45;100426.84;5068653;28;20082;-20
2022/01/07 08:01:25;;;;;;;16.67;9.90;;;;;;;7.68;65.15;100442.00;5068268;28;20075;-21
2022/01/07 08:03:50;;;;;;;17.80;9.95;;;;;;;7.42;67.08;100444.22;5068473;28;20032;-20
2022/01/07 08:06:16;;;;;;;17.27;9.43;;;;;;;7.37;66.81;100429.88;5068365;28;20066;-20
2022/01/07 08:08:41;;;;;;;15.40;9.77;;;;;;;7.50;66.62;100443.28;5068483;28;20039;-20
2022/01/07 08:11:09;;;;;;;17.85;10.93;;;;;;;7.29;67.42;100435.31;5067979;28;20036;-19
2022/01/07 08:16:19;;;;;;;50.80;25.45;;;;;;;8.31;65.16;100450.88;5068196;28;20083;-19
2022/01/07 08:18:49;;;;;;;21.67;11.95;;;;;;;8.05;64.59;100419.66;5066316;28;20064;-20
2022/01/07 08:21:14;;;;;;;24.55;13.48;;;;;;;8.04;64.99;100448.03;5067772;28;20035;-19
2022/01/07 08:23:42;;;;;;;15.45;9.63;;;;;;;7.99;64.91;100458.44;5067868;28;20052;-19
2022/01/07 08:26:09;;;;;;;18.65;10.98;;;;;;;7.70;66.44;100459.38;5068109;28;20032;-20
2022/01/07 08:28:40;;;;;;;40.15;30.42;;;;;;;8.05;65.27;100451.53;5067919;28;20108;-19
2022/01/07 08:36:22;;;;;;;55.33;30.42;;;;;;;7.84;64.83;100457.66;5067913;28;20031;-19
2022/01/07 08:38:48;;;;;;;24.23;13.48;;;;;;;8.12;63.75;100446.25;5068004;28;20028;-20
2022/01/07 08:41:14;;;;;;;15.90;9.52;;;;;;;7.96;64.14;100450.00;5067556;28;20553;-20
2022/01/07 08:43:40;;;;;;;16.25;8.88;;;;;;;7.65;64.74;100451.19;5067826;28;20044;-19
2022/01/07 08:46:06;;;;;;;17.77;10.00;;;;;;;7.90;65.30;100454.25;5067773;28;20056;-20
2022/01/07 08:48:32;;;;;;;16.38;9.13;;;;;;;7.83;64.25;100453.38;5067832;28;20365;-20
2022/01/07 08:50:57;;;;;;;16.85;9.85;;;;;;;7.79;65.48;100452.13;5049588;28;20052;-20
2022/01/07 08:53:22;;;;;;;18.48;9.88;;;;;;;7.72;65.77;100430.00;5067711;28;20036;-19
2022/01/07 08:55:48;;;;;;;14.15;8.75;;;;;;;7.97;64.49;100449.84;5067545;28;20093;-19
2022/01/07 08:58:14;;;;;;;17.95;9.18;;;;;;;7.91;64.40;100441.81;5067616;28;20029;-20
2022/01/07 09:00:39;;;;;;;43.72;22.17;;;;;;;7.89;65.45;100436.69;5067651;28;20048;-20
2022/01/07 09:03:05;;;;;;;40.88;24.48;;;;;;;8.03;64.86;100438.44;5067426;28;20118;-20
2022/01/07 09:05:30;;;;;;;26.63;14.25;;;;;;;8.20;64.82;100454.09;5070926;28;20032;-20
2022/01/07 09:07:56;;;;;;;33.13;20.75;;;;;;;8.53;64.00;100454.31;5071547;28;20052;-20
2022/01/07 09:10:21;;;;;;;21.75;12.40;;;;;;;8.56;62.14;100445.13;5071805;28;20035;-19
2022/01/07 09:12:47;;;;;;;31.25;19.88;;;;;;;8.77;62.36;100445.03;5071867;28;20040;-20
2022/01/07 09:15:12;;;;;;;18.83;11.77;;;;;;;8.22;62.05;100446.75;5071609;28;20024;-20
2022/01/07 09:17:40;;;;;;;19.70;11.20;;;;;;;8.36;62.12;100443.16;5071177;28;20045;-19
2022/01/07 09:20:07;;;;;;;15.65;10.00;;;;;;;8.25;61.43;100420.63;5071211;28;20056;-19
2022/01/07 09:22:33;;;;;;;14.25;8.95;;;;;;;8.28;61.44;100423.91;5071330;28;20033;-19
2022/01/07 09:24:59;;;;;;;18.20;9.95;;;;;;;7.89;62.94;100446.50;5071347;28;20044;-19
2022/01/07 09:27:24;;;;;;;27.55;15.00;;;;;;;7.80;64.41;100427.22;5071128;28;20085;-19
2022/01/07 09:29:50;;;;;;;21.95;12.30;;;;;;;7.93;64.28;100435.28;5071301;28;20028;-19
2022/01/07 09:32:15;;;;;;;17.33;11.15;;;;;;;8.00;63.13;100428.19;5071237;28;20032;-19
2022/01/07 09:34:41;;;;;;;17.80;10.98;;;;;;;8.13;62.34;100427.47;5071059;28;20033;-19
2022/01/07 09:37:06;;;;;;;23.38;12.65;;;;;;;8.20;62.79;100428.34;5052839;28;20105;-20
2022/01/07 09:39:32;;;;;;;18.70;9.90;;;;;;;7.94;63.66;100422.84;5070984;28;20044;-20
2022/01/07 09:42:01;;;;;;;18.02;9.55;;;;;;;8.07;62.22;100404.34;5071109;28;20021;-20
2022/01/07 09:44:27;;;;;;;16.65;10.30;;;;;;;8.39;61.99;100421.50;5071844;28;20047;-20
2022/01/07 09:46:53;;;;;;;18.70;10.90;;;;;;;8.57;60.89;100423.66;5072181;28;20021;-20
2022/01/07 09:49:18;;;;;;;20.38;10.25;;;;;;;8.61;62.03;100429.41;5053766;28;20028;-19
2022/01/07 09:51:44;;;;;;;20.58;11.18;;;;;;;8.39;62.18;100413.53;5071814;28;20028;-19
2022/01/07 09:54:09;;;;;;;18.63;11.27;;;;;;;8.52;62.31;100412.81;5071629;28;20060;-19
2022/01/07 09:56:35;;;;;;;19.38;11.80;;;;;;;8.58;62.81;100413.84;5071702;28;20066;-19
2022/01/07 09:59:04;;;;;;;19.48;11.68;;;;;;;8.77;62.13;100423.78;5071463;28;20032;-20
2022/01/07 10:01:30;;;;;;;19.83;11.27;;;;;;;8.81;62.28;100424.19;5071476;28;20116;-19
2022/01/07 10:03:56;;;;;;;19.55;11.45;;;;;;;8.68;62.63;100406.34;5071606;28;20036;-20
2022/01/07 10:06:22;;;;;;;21.10;10.85;;;;;;;8.75;62.61;100419.69;5071574;28;20028;-19
2022/01/07 10:09:03;;;;;;;19.63;11.35;;;;;;;8.75;62.59;100415.16;5071587;28;20028;-21
2022/01/07 10:11:29;;;;;;;19.15;11.40;;;;;;;8.63;62.90;100401.63;5071291;28;20468;-19
2022/01/07 10:14:17;;;;;;;19.10;11.48;;;;;;;8.69;61.05;100404.50;5071419;28;20544;-19
2022/01/07 10:16:46;;;;;;;;;;;;;;;8.75;61.29;100419.69;5070688;28;20032;-19
2022/01/07 10:19:49;;;;;;;18.30;10.95;;;;;;;8.64;61.95;100413.06;5070739;28;20374;-19
2022/01/07 10:22:16;;;;;;;24.13;14.05;;;;;;;8.39;62.46;100404.72;5071122;28;20025;-19
2022/01/07 10:24:58;;;;;;;43.80;23.58;;;;;;;8.51;62.61;100397.06;5071121;28;20024;-20
2022/01/07 10:27:27;;;;;;;24.77;14.45;;;;;;;8.42;62.98;100410.50;5071189;28;20021;-19
2022/01/07 10:29:52;;;;;;;18.95;11.32;;;;;;;8.65;62.87;100409.41;5071039;28;20039;-20
2022/01/07 10:32:23;;;;;;;16.83;11.57;;;;;;;8.54;62.98;100397.50;5071384;28;20028;-19
2022/01/07 10:35:07;;;;;;;20.00;11.95;;;;;;;8.57;63.61;100402.41;5071263;28;20029;-20
2022/01/07 10:37:34;;;;;;;23.73;14.05;;;;;;;8.37;64.12;100370.38;5071065;28;20028;-20
2022/01/07 10:40:00;;;;;;;23.67;14.45;;;;;;;8.49;64.35;100396.44;5071057;28;20036;-20
2022/01/07 10:42:25;;;;;;;22.23;13.32;;;;;;;8.52;65.06;100385.41;5052788;28;20031;-20
2022/01/07 10:45:01;;;;;;;19.80;11.60;;;;;;;8.52;65.62;100415.47;5071193;28;20089;-20
2022/01/07 10:47:28;;;;;;;18.65;10.13;;;;;;;8.24;63.97;100380.94;5052996;28;20377;-19
2022/01/07 10:50:19;;;;;;;17.83;11.40;;;;;;;8.27;63.12;100375.22;5070666;28;20036;-20
2022/01/07 10:52:44;;;;;;;16.58;9.75;;;;;;;8.25;63.56;100390.53;5070642;28;20026;-20
2022/01/07 10:55:14;;;;;;;16.83;9.63;;;;;;;8.12;64.36;100383.31;5070623;28;20040;-19
2022/01/07 10:57:44;;;;;;;18.63;10.30;;;;;;;8.58;63.68;100403.22;5070769;28;20024;-19
2022/01/07 11:00:20;;;;;;;17.55;10.63;;;;;;;8.72;62.27;100383.63;5052486;28;20056;-20
2022/01/07 11:02:46;;;;;;;34.45;18.05;;;;;;;8.93;63.02;100396.00;5070531;28;20484;-19
2022/01/07 11:05:12;;;;;;;18.70;11.40;;;;;;;8.82;63.86;100389.41;5070178;28;20044;-19
2022/01/07 11:07:37;;;;;;;21.35;12.32;;;;;;;8.74;63.63;100384.25;5070236;28;20056;-19
2022/01/07 11:10:06;;;;;;;18.58;10.63;;;;;;;8.58;63.24;100371.31;5070487;28;20079;-19
2022/01/07 11:12:33;;;;;;;20.23;10.52;;;;;;;8.45;64.27;100383.53;5052677;28;20128;-19
2022/01/07 11:15:00;;;;;;;19.60;11.25;;;;;;;8.62;64.29;100404.47;5069991;28;20121;-20
2022/01/07 11:17:26;;;;;;;19.33;11.75;;;;;;;8.44;65.39;100386.41;5070025;28;20081;-19
2022/01/07 11:19:54;;;;;;;17.67;10.68;;;;;;;8.68;63.09;100409.00;5069882;28;20466;-19
2022/01/07 11:22:19;;;;;;;169.07;91.57;;;;;;;15.56;47.96;100413.03;5070162;28;20031;-19
2022/01/07 11:24:54;;;;;;;117.97;71.13;;;;;;;16.82;41.23;100411.66;5052195;28;20267;-20
2022/01/07 11:27:27;;;;;;;31.95;21.70;;;;;;;13.64;47.39;100405.03;5069449;28;20057;-19
2022/01/07 11:30:13;;;;;;;50.60;32.25;;;;;;;11.73;53.57;100406.03;5052293;28;20115;-19